sensor_id;sensor_type;location;lat;lon;timestamp;P1;durP1;ratioP1;P2;durP2;ratioP2
49440;SDS011;35317;51.978;6.296;2022-08-19T00:03:21;21.92;;;18.35;;
49440;SDS011;35317;51.978;6.296;2022-08-19T00:08:21;30.15;;;22.30;;
49440;SDS011;35317;51.978;6.296;2022-08-19T00:13:22;30.27;;;23.95;;
49440;SDS011;35317;51.978;6.296;2022-08-19T00:18:23;25.80;;;21.52;;
49440;SDS011;35317;51.978;6.296;2022-08-19T00:23:24;31.65;;;24.63;;
49440;SDS011;35317;51.978;6.296;2022-08-19T00:28:25;29.55;;;23.55;;
49440;SDS011;35317;51.978;6.296;2022-08-19T00:33:26;31.25;;;23.98;;
49440;SDS011;35317;51.978;6.296;2022-08-19T00:38:27;31.45;;;23.60;;
49440;SDS011;35317;51.978;6.296;2022-08-19T00:43:28;27.10;;;21.77;;
49440;SDS011;35317;51.978;6.296;2022-08-19T00:48:29;34.33;;;26.33;;
49440;SDS011;35317;51.978;6.296;2022-08-19T00:53:30;41.25;;;28.25;;
49440;SDS011;35317;51.978;6.296;2022-08-19T01:03:35;35.05;;;25.38;;
49440;SDS011;35317;51.978;6.296;2022-08-19T01:08:36;40.50;;;27.20;;
49440;SDS011;35317;51.978;6.296;2022-08-19T01:13:37;37.50;;;27.02;;
49440;SDS011;35317;51.978;6.296;2022-08-19T01:18:39;38.97;;;27.30;;
49440;SDS011;35317;51.978;6.296;2022-08-19T01:23:43;34.55;;;24.83;;
49440;SDS011;35317;51.978;6.296;2022-08-19T01:28:45;38.80;;;26.05;;
49440;SDS011;35317;51.978;6.296;2022-08-19T01:33:50;38.03;;;26.63;;
49440;SDS011;35317;51.978;6.296;2022-08-19T01:38:53;37.60;;;26.73;;
49440;SDS011;35317;51.978;6.296;2022-08-19T01:43:54;40.25;;;27.85;;
49440;SDS011;35317;51.978;6.296;2022-08-19T01:48:56;34.20;;;23.90;;
49440;SDS011;35317;51.978;6.296;2022-08-19T01:53:57;43.03;;;28.48;;
49440;SDS011;35317;51.978;6.296;2022-08-19T01:59:00;34.65;;;25.08;;
49440;SDS011;35317;51.978;6.296;2022-08-19T02:04:05;41.63;;;28.73;;
49440;SDS011;35317;51.978;6.296;2022-08-19T02:09:06;44.28;;;29.83;;
49440;SDS011;35317;51.978;6.296;2022-08-19T02:14:08;45.38;;;30.20;;
49440;SDS011;35317;51.978;6.296;2022-08-19T02:19:10;31.95;;;24.10;;
49440;SDS011;35317;51.978;6.296;2022-08-19T02:24:11;39.75;;;27.42;;
49440;SDS011;35317;51.978;6.296;2022-08-19T02:29:12;41.25;;;29.65;;
49440;SDS011;35317;51.978;6.296;2022-08-19T02:34:13;39.75;;;28.52;;
49440;SDS011;35317;51.978;6.296;2022-08-19T02:39:13;44.35;;;30.08;;
49440;SDS011;35317;51.978;6.296;2022-08-19T02:44:15;41.10;;;28.17;;
49440;SDS011;35317;51.978;6.296;2022-08-19T02:49:15;37.20;;;25.73;;
49440;SDS011;35317;51.978;6.296;2022-08-19T02:54:16;33.15;;;23.75;;
49440;SDS011;35317;51.978;6.296;2022-08-19T02:59:17;36.88;;;26.25;;
49440;SDS011;35317;51.978;6.296;2022-08-19T03:04:18;38.05;;;27.02;;
49440;SDS011;35317;51.978;6.296;2022-08-19T03:09:20;40.72;;;28.30;;
49440;SDS011;35317;51.978;6.296;2022-08-19T03:14:20;39.80;;;27.30;;
49440;SDS011;35317;51.978;6.296;2022-08-19T03:19:22;37.88;;;25.90;;
49440;SDS011;35317;51.978;6.296;2022-08-19T03:24:23;30.67;;;22.85;;
49440;SDS011;35317;51.978;6.296;2022-08-19T03:29:25;34.88;;;23.92;;
49440;SDS011;35317;51.978;6.296;2022-08-19T03:34:28;34.47;;;23.80;;
49440;SDS011;35317;51.978;6.296;2022-08-19T03:39:32;41.28;;;26.42;;
49440;SDS011;35317;51.978;6.296;2022-08-19T03:44:34;45.45;;;28.38;;
49440;SDS011;35317;51.978;6.296;2022-08-19T03:49:37;49.57;;;29.73;;
49440;SDS011;35317;51.978;6.296;2022-08-19T03:54:38;41.67;;;27.90;;
49440;SDS011;35317;51.978;6.296;2022-08-19T03:59:39;40.75;;;26.33;;
49440;SDS011;35317;51.978;6.296;2022-08-19T04:04:41;38.92;;;27.00;;
49440;SDS011;35317;51.978;6.296;2022-08-19T04:09:43;44.88;;;27.17;;
49440;SDS011;35317;51.978;6.296;2022-08-19T04:14:44;40.45;;;29.02;;
49440;SDS011;35317;51.978;6.296;2022-08-19T04:19:45;49.60;;;31.70;;
49440;SDS011;35317;51.978;6.296;2022-08-19T04:24:45;61.53;;;36.13;;
49440;SDS011;35317;51.978;6.296;2022-08-19T04:29:46;51.15;;;32.25;;
49440;SDS011;35317;51.978;6.296;2022-08-19T04:34:47;48.95;;;32.03;;
49440;SDS011;35317;51.978;6.296;2022-08-19T04:39:48;49.13;;;31.48;;
49440;SDS011;35317;51.978;6.296;2022-08-19T04:45:13;47.08;;;31.38;;
49440;SDS011;35317;51.978;6.296;2022-08-19T04:50:14;53.15;;;33.58;;
49440;SDS011;35317;51.978;6.296;2022-08-19T04:55:15;55.92;;;34.42;;
49440;SDS011;35317;51.978;6.296;2022-08-19T05:00:16;67.50;;;38.85;;
49440;SDS011;35317;51.978;6.296;2022-08-19T05:05:17;69.05;;;40.38;;
49440;SDS011;35317;51.978;6.296;2022-08-19T05:10:19;65.47;;;38.20;;
49440;SDS011;35317;51.978;6.296;2022-08-19T05:15:20;69.28;;;37.42;;
49440;SDS011;35317;51.978;6.296;2022-08-19T05:20:21;67.68;;;38.38;;
49440;SDS011;35317;51.978;6.296;2022-08-19T05:25:41;60.17;;;35.28;;
49440;SDS011;35317;51.978;6.296;2022-08-19T05:30:42;41.88;;;29.67;;
49440;SDS011;35317;51.978;6.296;2022-08-19T05:35:44;42.75;;;28.52;;
49440;SDS011;35317;51.978;6.296;2022-08-19T05:40:46;40.22;;;27.75;;
49440;SDS011;35317;51.978;6.296;2022-08-19T05:45:48;39.70;;;28.80;;
49440;SDS011;35317;51.978;6.296;2022-08-19T05:50:49;44.60;;;30.23;;
49440;SDS011;35317;51.978;6.296;2022-08-19T05:55:50;43.50;;;29.63;;
49440;SDS011;35317;51.978;6.296;2022-08-19T06:00:51;45.85;;;31.52;;
49440;SDS011;35317;51.978;6.296;2022-08-19T06:05:54;52.60;;;32.13;;
49440;SDS011;35317;51.978;6.296;2022-08-19T06:10:55;41.72;;;30.98;;
49440;SDS011;35317;51.978;6.296;2022-08-19T06:15:56;45.20;;;32.60;;
49440;SDS011;35317;51.978;6.296;2022-08-19T06:20:57;51.40;;;36.20;;
49440;SDS011;35317;51.978;6.296;2022-08-19T06:25:57;55.78;;;39.00;;
49440;SDS011;35317;51.978;6.296;2022-08-19T06:30:58;54.85;;;38.58;;
49440;SDS011;35317;51.978;6.296;2022-08-19T06:36:01;55.13;;;38.47;;
49440;SDS011;35317;51.978;6.296;2022-08-19T06:41:03;58.85;;;40.97;;
49440;SDS011;35317;51.978;6.296;2022-08-19T06:46:08;61.22;;;41.45;;
49440;SDS011;35317;51.978;6.296;2022-08-19T06:51:13;63.53;;;42.15;;
49440;SDS011;35317;51.978;6.296;2022-08-19T06:56:22;57.30;;;41.80;;
49440;SDS011;35317;51.978;6.296;2022-08-19T07:01:34;56.63;;;38.95;;
49440;SDS011;35317;51.978;6.296;2022-08-19T07:06:47;52.72;;;38.80;;
49440;SDS011;35317;51.978;6.296;2022-08-19T07:11:50;50.63;;;38.20;;
49440;SDS011;35317;51.978;6.296;2022-08-19T07:16:53;48.85;;;35.97;;
49440;SDS011;35317;51.978;6.296;2022-08-19T07:21:56;46.15;;;35.70;;
49440;SDS011;35317;51.978;6.296;2022-08-19T07:26:58;45.97;;;34.30;;
49440;SDS011;35317;51.978;6.296;2022-08-19T07:32:03;45.50;;;36.28;;
49440;SDS011;35317;51.978;6.296;2022-08-19T07:37:05;46.95;;;35.70;;
49440;SDS011;35317;51.978;6.296;2022-08-19T07:42:08;47.45;;;35.63;;
49440;SDS011;35317;51.978;6.296;2022-08-19T07:47:11;48.53;;;36.03;;
49440;SDS011;35317;51.978;6.296;2022-08-19T07:52:13;45.17;;;34.83;;
49440;SDS011;35317;51.978;6.296;2022-08-19T07:57:13;47.80;;;35.28;;
49440;SDS011;35317;51.978;6.296;2022-08-19T08:02:14;46.08;;;33.90;;
49440;SDS011;35317;51.978;6.296;2022-08-19T08:07:15;41.97;;;32.55;;
49440;SDS011;35317;51.978;6.296;2022-08-19T08:12:37;40.78;;;32.22;;
49440;SDS011;35317;51.978;6.296;2022-08-19T08:17:42;38.45;;;31.65;;
49440;SDS011;35317;51.978;6.296;2022-08-19T08:22:45;42.03;;;34.22;;
49440;SDS011;35317;51.978;6.296;2022-08-19T08:28:05;39.45;;;30.58;;
49440;SDS011;35317;51.978;6.296;2022-08-19T08:33:09;40.70;;;31.20;;
49440;SDS011;35317;51.978;6.296;2022-08-19T08:38:10;38.00;;;31.70;;
49440;SDS011;35317;51.978;6.296;2022-08-19T08:48:49;43.50;;;33.05;;
49440;SDS011;35317;51.978;6.296;2022-08-19T08:53:54;46.42;;;33.08;;
49440;SDS011;35317;51.978;6.296;2022-08-19T08:59:01;46.08;;;33.08;;
49440;SDS011;35317;51.978;6.296;2022-08-19T09:04:09;37.72;;;27.10;;
49440;SDS011;35317;51.978;6.296;2022-08-19T09:19:54;36.30;;;24.45;;
49440;SDS011;35317;51.978;6.296;2022-08-19T09:25:08;39.53;;;27.35;;
49440;SDS011;35317;51.978;6.296;2022-08-19T09:30:23;38.50;;;26.90;;
49440;SDS011;35317;51.978;6.296;2022-08-19T09:35:28;36.63;;;27.67;;
49440;SDS011;35317;51.978;6.296;2022-08-19T09:40:30;36.60;;;25.30;;
49440;SDS011;35317;51.978;6.296;2022-08-19T09:45:31;34.10;;;24.50;;
49440;SDS011;35317;51.978;6.296;2022-08-19T09:50:32;37.53;;;23.23;;
49440;SDS011;35317;51.978;6.296;2022-08-19T09:55:34;32.35;;;23.88;;
49440;SDS011;35317;51.978;6.296;2022-08-19T10:00:36;19.52;;;16.23;;
49440;SDS011;35317;51.978;6.296;2022-08-19T10:05:38;21.13;;;15.77;;
49440;SDS011;35317;51.978;6.296;2022-08-19T10:10:48;23.35;;;15.32;;
49440;SDS011;35317;51.978;6.296;2022-08-19T10:15:51;19.47;;;14.60;;
49440;SDS011;35317;51.978;6.296;2022-08-19T10:21:01;11.40;;;10.15;;
49440;SDS011;35317;51.978;6.296;2022-08-19T10:26:20;15.82;;;13.05;;
49440;SDS011;35317;51.978;6.296;2022-08-19T10:31:31;12.90;;;9.70;;
49440;SDS011;35317;51.978;6.296;2022-08-19T10:36:36;10.73;;;7.53;;
49440;SDS011;35317;51.978;6.296;2022-08-19T10:41:37;10.35;;;7.45;;
49440;SDS011;35317;51.978;6.296;2022-08-19T10:46:41;11.20;;;7.77;;
49440;SDS011;35317;51.978;6.296;2022-08-19T10:51:44;15.93;;;10.02;;
49440;SDS011;35317;51.978;6.296;2022-08-19T10:57:04;19.55;;;13.45;;
49440;SDS011;35317;51.978;6.296;2022-08-19T11:02:06;32.00;;;22.30;;
49440;SDS011;35317;51.978;6.296;2022-08-19T11:07:09;40.28;;;25.40;;
49440;SDS011;35317;51.978;6.296;2022-08-19T11:12:11;33.13;;;23.77;;
49440;SDS011;35317;51.978;6.296;2022-08-19T11:17:12;32.83;;;20.80;;
49440;SDS011;35317;51.978;6.296;2022-08-19T11:22:14;27.42;;;18.60;;
49440;SDS011;35317;51.978;6.296;2022-08-19T11:27:14;36.30;;;21.52;;
49440;SDS011;35317;51.978;6.296;2022-08-19T11:32:15;26.63;;;19.88;;
49440;SDS011;35317;51.978;6.296;2022-08-19T11:37:16;33.80;;;21.95;;
49440;SDS011;35317;51.978;6.296;2022-08-19T11:42:17;25.48;;;18.40;;
49440;SDS011;35317;51.978;6.296;2022-08-19T11:47:36;24.42;;;16.27;;
49440;SDS011;35317;51.978;6.296;2022-08-19T11:52:38;21.65;;;14.90;;
49440;SDS011;35317;51.978;6.296;2022-08-19T11:57:39;22.23;;;13.98;;
49440;SDS011;35317;51.978;6.296;2022-08-19T12:02:41;17.63;;;12.45;;
49440;SDS011;35317;51.978;6.296;2022-08-19T12:07:42;14.50;;;10.63;;
49440;SDS011;35317;51.978;6.296;2022-08-19T12:12:43;17.80;;;10.15;;
49440;SDS011;35317;51.978;6.296;2022-08-19T12:17:45;12.52;;;9.38;;
49440;SDS011;35317;51.978;6.296;2022-08-19T12:22:46;13.57;;;8.98;;
49440;SDS011;35317;51.978;6.296;2022-08-19T12:27:48;14.43;;;9.23;;
49440;SDS011;35317;51.978;6.296;2022-08-19T12:32:50;17.13;;;11.20;;
49440;SDS011;35317;51.978;6.296;2022-08-19T12:37:51;14.57;;;11.02;;
49440;SDS011;35317;51.978;6.296;2022-08-19T12:42:53;18.95;;;13.02;;
49440;SDS011;35317;51.978;6.296;2022-08-19T12:47:54;15.60;;;11.77;;
49440;SDS011;35317;51.978;6.296;2022-08-19T12:52:55;13.38;;;9.98;;
49440;SDS011;35317;51.978;6.296;2022-08-19T12:57:57;15.03;;;11.40;;
49440;SDS011;35317;51.978;6.296;2022-08-19T13:02:58;18.77;;;11.70;;
49440;SDS011;35317;51.978;6.296;2022-08-19T13:08:00;13.97;;;10.20;;
49440;SDS011;35317;51.978;6.296;2022-08-19T13:13:02;17.50;;;12.60;;
49440;SDS011;35317;51.978;6.296;2022-08-19T13:18:09;16.20;;;11.85;;
49440;SDS011;35317;51.978;6.296;2022-08-19T13:28:13;18.85;;;11.40;;
49440;SDS011;35317;51.978;6.296;2022-08-19T13:33:13;15.88;;;12.68;;
49440;SDS011;35317;51.978;6.296;2022-08-19T13:38:16;15.88;;;10.27;;
49440;SDS011;35317;51.978;6.296;2022-08-19T13:43:21;17.13;;;10.68;;
49440;SDS011;35317;51.978;6.296;2022-08-19T13:48:24;15.68;;;11.07;;
49440;SDS011;35317;51.978;6.296;2022-08-19T13:58:28;18.23;;;14.38;;
49440;SDS011;35317;51.978;6.296;2022-08-19T14:03:30;17.77;;;15.65;;
49440;SDS011;35317;51.978;6.296;2022-08-19T14:08:32;19.95;;;14.43;;
49440;SDS011;35317;51.978;6.296;2022-08-19T14:13:33;20.48;;;16.52;;
49440;SDS011;35317;51.978;6.296;2022-08-19T14:18:34;23.70;;;17.13;;
49440;SDS011;35317;51.978;6.296;2022-08-19T14:23:35;17.95;;;14.65;;
49440;SDS011;35317;51.978;6.296;2022-08-19T14:28:36;18.35;;;14.13;;
49440;SDS011;35317;51.978;6.296;2022-08-19T14:33:37;19.63;;;15.52;;
49440;SDS011;35317;51.978;6.296;2022-08-19T14:38:38;20.58;;;16.02;;
49440;SDS011;35317;51.978;6.296;2022-08-19T14:43:40;23.38;;;16.38;;
49440;SDS011;35317;51.978;6.296;2022-08-19T14:48:41;17.33;;;13.82;;
49440;SDS011;35317;51.978;6.296;2022-08-19T14:53:42;24.17;;;15.25;;
49440;SDS011;35317;51.978;6.296;2022-08-19T14:58:44;20.10;;;13.57;;
49440;SDS011;35317;51.978;6.296;2022-08-19T15:03:44;17.90;;;12.82;;
49440;SDS011;35317;51.978;6.296;2022-08-19T15:08:46;15.65;;;14.02;;
49440;SDS011;35317;51.978;6.296;2022-08-19T15:13:46;20.35;;;16.02;;
49440;SDS011;35317;51.978;6.296;2022-08-19T15:18:52;24.38;;;17.10;;
49440;SDS011;35317;51.978;6.296;2022-08-19T15:23:56;23.02;;;15.98;;
49440;SDS011;35317;51.978;6.296;2022-08-19T15:28:58;26.13;;;17.77;;
49440;SDS011;35317;51.978;6.296;2022-08-19T15:34:01;20.90;;;17.55;;
49440;SDS011;35317;51.978;6.296;2022-08-19T15:39:03;24.10;;;17.60;;
49440;SDS011;35317;51.978;6.296;2022-08-19T15:44:07;25.25;;;19.27;;
49440;SDS011;35317;51.978;6.296;2022-08-19T15:49:11;27.65;;;19.27;;
49440;SDS011;35317;51.978;6.296;2022-08-19T15:54:17;22.58;;;17.50;;
49440;SDS011;35317;51.978;6.296;2022-08-19T15:59:20;22.70;;;16.45;;
49440;SDS011;35317;51.978;6.296;2022-08-19T16:04:39;20.67;;;14.10;;
49440;SDS011;35317;51.978;6.296;2022-08-19T16:09:59;17.65;;;12.23;;
49440;SDS011;35317;51.978;6.296;2022-08-19T16:14:59;18.65;;;10.85;;
49440;SDS011;35317;51.978;6.296;2022-08-19T16:20:01;15.88;;;11.20;;
49440;SDS011;35317;51.978;6.296;2022-08-19T16:25:07;15.88;;;11.77;;
49440;SDS011;35317;51.978;6.296;2022-08-19T16:30:09;13.10;;;10.77;;
49440;SDS011;35317;51.978;6.296;2022-08-19T16:35:10;12.15;;;8.77;;
49440;SDS011;35317;51.978;6.296;2022-08-19T16:40:11;10.93;;;9.57;;
49440;SDS011;35317;51.978;6.296;2022-08-19T16:45:12;11.02;;;8.35;;
49440;SDS011;35317;51.978;6.296;2022-08-19T16:50:13;17.58;;;10.32;;
49440;SDS011;35317;51.978;6.296;2022-08-19T16:55:13;13.20;;;9.57;;
49440;SDS011;35317;51.978;6.296;2022-08-19T17:00:15;13.25;;;9.45;;
49440;SDS011;35317;51.978;6.296;2022-08-19T17:05:16;12.60;;;9.60;;
49440;SDS011;35317;51.978;6.296;2022-08-19T17:10:18;10.77;;;9.18;;
49440;SDS011;35317;51.978;6.296;2022-08-19T17:15:19;9.55;;;8.50;;
49440;SDS011;35317;51.978;6.296;2022-08-19T17:20:20;10.52;;;7.15;;
49440;SDS011;35317;51.978;6.296;2022-08-19T17:25:21;11.07;;;7.10;;
49440;SDS011;35317;51.978;6.296;2022-08-19T17:30:27;9.27;;;6.53;;
49440;SDS011;35317;51.978;6.296;2022-08-19T17:35:28;8.90;;;7.25;;
49440;SDS011;35317;51.978;6.296;2022-08-19T17:40:29;7.85;;;6.57;;
49440;SDS011;35317;51.978;6.296;2022-08-19T17:45:30;7.82;;;6.20;;
49440;SDS011;35317;51.978;6.296;2022-08-19T17:50:31;8.88;;;6.50;;
49440;SDS011;35317;51.978;6.296;2022-08-19T17:55:34;7.47;;;6.70;;
49440;SDS011;35317;51.978;6.296;2022-08-19T18:00:35;7.57;;;6.32;;
49440;SDS011;35317;51.978;6.296;2022-08-19T18:05:40;8.25;;;6.57;;
49440;SDS011;35317;51.978;6.296;2022-08-19T18:10:42;9.00;;;6.43;;
49440;SDS011;35317;51.978;6.296;2022-08-19T18:15:43;6.10;;;5.10;;
49440;SDS011;35317;51.978;6.296;2022-08-19T18:21:00;6.56;;;5.06;;
49440;SDS011;35317;51.978;6.296;2022-08-19T18:26:01;6.40;;;5.68;;
49440;SDS011;35317;51.978;6.296;2022-08-19T18:31:03;7.97;;;6.00;;
49440;SDS011;35317;51.978;6.296;2022-08-19T18:36:05;8.20;;;6.63;;
49440;SDS011;35317;51.978;6.296;2022-08-19T18:41:06;7.63;;;5.47;;
49440;SDS011;35317;51.978;6.296;2022-08-19T18:46:26;7.68;;;5.80;;
49440;SDS011;35317;51.978;6.296;2022-08-19T18:51:46;8.25;;;6.25;;
49440;SDS011;35317;51.978;6.296;2022-08-19T18:56:46;7.60;;;5.57;;
49440;SDS011;35317;51.978;6.296;2022-08-19T19:01:47;6.70;;;6.00;;
49440;SDS011;35317;51.978;6.296;2022-08-19T19:06:51;7.50;;;6.13;;
49440;SDS011;35317;51.978;6.296;2022-08-19T19:11:54;8.27;;;6.00;;
49440;SDS011;35317;51.978;6.296;2022-08-19T19:16:58;6.97;;;5.70;;
49440;SDS011;35317;51.978;6.296;2022-08-19T19:22:02;6.80;;;5.47;;
49440;SDS011;35317;51.978;6.296;2022-08-19T19:27:04;7.13;;;5.30;;
49440;SDS011;35317;51.978;6.296;2022-08-19T19:32:09;8.73;;;5.88;;
49440;SDS011;35317;51.978;6.296;2022-08-19T19:37:17;7.80;;;5.97;;
49440;SDS011;35317;51.978;6.296;2022-08-19T19:42:19;8.48;;;6.07;;
49440;SDS011;35317;51.978;6.296;2022-08-19T19:47:22;7.53;;;5.22;;
49440;SDS011;35317;51.978;6.296;2022-08-19T19:52:24;6.78;;;5.78;;
49440;SDS011;35317;51.978;6.296;2022-08-19T19:57:25;8.70;;;5.68;;
49440;SDS011;35317;51.978;6.296;2022-08-19T20:02:26;8.93;;;5.78;;
49440;SDS011;35317;51.978;6.296;2022-08-19T20:07:27;7.28;;;5.75;;
49440;SDS011;35317;51.978;6.296;2022-08-19T20:12:46;10.52;;;5.85;;
49440;SDS011;35317;51.978;6.296;2022-08-19T20:17:47;12.50;;;7.20;;
49440;SDS011;35317;51.978;6.296;2022-08-19T20:22:48;7.57;;;6.78;;
49440;SDS011;35317;51.978;6.296;2022-08-19T20:27:49;18.25;;;9.05;;
49440;SDS011;35317;51.978;6.296;2022-08-19T20:32:50;11.73;;;8.48;;
49440;SDS011;35317;51.978;6.296;2022-08-19T20:37:51;10.20;;;7.97;;
49440;SDS011;35317;51.978;6.296;2022-08-19T20:42:53;13.77;;;8.98;;
49440;SDS011;35317;51.978;6.296;2022-08-19T20:47:55;11.90;;;9.82;;
49440;SDS011;35317;51.978;6.296;2022-08-19T20:52:56;14.52;;;10.57;;
49440;SDS011;35317;51.978;6.296;2022-08-19T20:57:57;13.35;;;10.38;;
49440;SDS011;35317;51.978;6.296;2022-08-19T21:02:58;14.43;;;10.75;;
49440;SDS011;35317;51.978;6.296;2022-08-19T21:07:59;13.25;;;10.40;;
49440;SDS011;35317;51.978;6.296;2022-08-19T21:13:00;14.55;;;11.50;;
49440;SDS011;35317;51.978;6.296;2022-08-19T21:18:02;12.40;;;10.07;;
49440;SDS011;35317;51.978;6.296;2022-08-19T21:23:07;17.45;;;10.35;;
49440;SDS011;35317;51.978;6.296;2022-08-19T21:28:13;12.45;;;8.50;;
49440;SDS011;35317;51.978;6.296;2022-08-19T21:33:14;10.40;;;7.72;;
49440;SDS011;35317;51.978;6.296;2022-08-19T21:38:15;10.80;;;6.90;;
49440;SDS011;35317;51.978;6.296;2022-08-19T21:43:16;10.82;;;6.60;;
49440;SDS011;35317;51.978;6.296;2022-08-19T21:48:17;6.95;;;5.97;;
49440;SDS011;35317;51.978;6.296;2022-08-19T21:53:19;9.77;;;6.22;;
49440;SDS011;35317;51.978;6.296;2022-08-19T21:58:20;10.48;;;6.50;;
49440;SDS011;35317;51.978;6.296;2022-08-19T22:03:22;8.32;;;5.45;;
49440;SDS011;35317;51.978;6.296;2022-08-19T22:08:44;9.73;;;6.10;;
49440;SDS011;35317;51.978;6.296;2022-08-19T22:13:47;7.05;;;6.32;;
49440;SDS011;35317;51.978;6.296;2022-08-19T22:18:53;11.02;;;6.22;;
49440;SDS011;35317;51.978;6.296;2022-08-19T22:24:06;7.55;;;5.70;;
49440;SDS011;35317;51.978;6.296;2022-08-19T22:29:24;5.90;;;4.82;;
49440;SDS011;35317;51.978;6.296;2022-08-19T22:34:25;8.43;;;5.50;;
49440;SDS011;35317;51.978;6.296;2022-08-19T22:39:26;7.47;;;5.22;;
49440;SDS011;35317;51.978;6.296;2022-08-19T22:44:27;6.97;;;5.32;;
49440;SDS011;35317;51.978;6.296;2022-08-19T22:49:28;7.25;;;6.25;;
49440;SDS011;35317;51.978;6.296;2022-08-19T22:54:28;7.75;;;6.25;;
49440;SDS011;35317;51.978;6.296;2022-08-19T22:59:29;9.15;;;6.55;;
49440;SDS011;35317;51.978;6.296;2022-08-19T23:04:30;9.85;;;7.22;;
49440;SDS011;35317;51.978;6.296;2022-08-19T23:09:31;10.00;;;6.63;;
49440;SDS011;35317;51.978;6.296;2022-08-19T23:14:32;8.57;;;7.28;;
49440;SDS011;35317;51.978;6.296;2022-08-19T23:19:36;12.23;;;7.88;;
49440;SDS011;35317;51.978;6.296;2022-08-19T23:24:37;10.45;;;7.70;;
49440;SDS011;35317;51.978;6.296;2022-08-19T23:29:38;12.45;;;7.70;;
49440;SDS011;35317;51.978;6.296;2022-08-19T23:34:57;9.60;;;7.75;;
49440;SDS011;35317;51.978;6.296;2022-08-19T23:39:58;9.90;;;8.45;;
49440;SDS011;35317;51.978;6.296;2022-08-19T23:44:59;8.73;;;6.25;;
49440;SDS011;35317;51.978;6.296;2022-08-19T23:50:02;10.30;;;8.15;;
49440;SDS011;35317;51.978;6.296;2022-08-19T23:55:05;12.10;;;8.73;;
